Time;durP1;ratioP1;P1;durP2;ratioP2;P2;SDS_P1;SDS_P2;PMS_P1;PMS_P2;Temp;Humidity;BMP_temperature;BMP_pressure;BME280_temperature;BME280_humidity;BME280_pressure;Samples;Min_cycle;Max_cycle;Signal;HPM_P1;HPM_P2
2023/07/05 00:01:58;;;;;;;8.45;4.07;;;;;;;;;;5051511;28;19924;-61
2023/07/05 00:04:24;;;;;;;10.55;4.55;;;;;;;;;;5051426;28;20080;-61
2023/07/05 00:06:52;;;;;;;9.02;5.07;;;;;;;;;;5051030;28;20052;-61
2023/07/05 00:09:18;;;;;;;5.70;4.75;;;;;;;;;;5051349;28;20053;-62
2023/07/05 00:11:46;;;;;;;8.05;4.93;;;;;;;;;;5051137;28;20452;-61
2023/07/05 00:14:12;;;;;;;10.55;5.18;;;;;;;;;;5051371;28;20060;-61
2023/07/05 00:16:38;;;;;;;9.93;5.38;;;;;;;;;;5051580;28;20108;-61
2023/07/05 00:19:07;;;;;;;7.20;5.55;;;;;;;;;;5055164;28;20049;-61
2023/07/05 00:21:34;;;;;;;8.05;5.90;;;;;;;;;;5054692;28;20045;-62
2023/07/05 00:24:01;;;;;;;10.25;6.05;;;;;;;;;;5054948;28;20056;-61
2023/07/05 00:26:27;;;;;;;8.48;5.88;;;;;;;;;;5054761;28;20045;-61
2023/07/05 00:28:54;;;;;;;9.48;5.72;;;;;;;;;;5054612;28;20045;-61
2023/07/05 00:31:20;;;;;;;9.57;6.63;;;;;;;;;;5054811;28;20053;-61
2023/07/05 00:33:47;;;;;;;8.43;5.63;;;;;;;;;;5054824;28;20059;-61
2023/07/05 00:36:14;;;;;;;8.67;5.00;;;;;;;;;;5054695;28;20045;-61
2023/07/05 00:38:40;;;;;;;7.72;5.30;;;;;;;;;;5054671;28;20700;-61
2023/07/05 00:41:07;;;;;;;7.38;5.05;;;;;;;;;;5054286;28;20514;-62
2023/07/05 00:43:33;;;;;;;9.13;5.60;;;;;;;;;;5054402;28;20052;-62
2023/07/05 00:46:05;;;;;;;7.03;5.38;;;;;;;;;;5054315;28;20497;-61
2023/07/05 00:48:34;;;;;;;8.07;5.10;;;;;;;;;;5054222;28;20128;-61
2023/07/05 00:51:03;;;;;;;8.57;5.00;;;;;;;;;;5054147;28;20052;-61
2023/07/05 00:53:29;;;;;;;11.63;5.22;;;;;;;;;;5054418;28;20055;-61
2023/07/05 00:56:00;;;;;;;8.27;4.72;;;;;;;;;;5054448;28;20489;-61
2023/07/05 00:58:26;;;;;;;7.90;4.45;;;;;;;;;;5054122;28;20045;-61
2023/07/05 01:00:53;;;;;;;8.93;4.20;;;;;;;;;;5054290;28;20095;-61
2023/07/05 01:03:21;;;;;;;7.72;4.20;;;;;;;;;;5053950;28;20085;-61
2023/07/05 01:05:52;;;;;;;8.00;4.47;;;;;;;;;;5054324;28;20404;-61
2023/07/05 01:08:19;;;;;;;7.18;3.92;;;;;;;;;;5053874;28;20041;-61
2023/07/05 01:10:48;;;;;;;7.80;4.05;;;;;;;;;;5053903;28;20455;-61
2023/07/05 01:13:18;;;;;;;12.50;4.30;;;;;;;;;;5054040;28;20102;-61
2023/07/05 01:15:55;;;;;;;9.43;4.70;;;;;;;;;;5053879;28;20175;-61
2023/07/05 01:18:31;;;;;;;6.07;4.72;;;;;;;;;;5054032;28;20041;-62
2023/07/05 01:20:57;;;;;;;9.77;5.00;;;;;;;;;;5053645;28;20052;-61
2023/07/05 01:23:24;;;;;;;11.43;4.75;;;;;;;;;;5053497;28;20049;-61
2023/07/05 01:26:07;;;;;;;11.15;5.63;;;;;;;;;;5053816;28;20049;-61
2023/07/05 01:28:37;;;;;;;11.20;4.82;;;;;;;;;;5053501;28;20056;-61
2023/07/05 01:31:03;;;;;;;12.35;4.90;;;;;;;;;;5053390;28;20056;-61
2023/07/05 01:33:40;;;;;;;7.78;4.68;;;;;;;;;;5053457;28;20140;-61
2023/07/05 01:36:07;;;;;;;9.32;5.28;;;;;;;;;;5053425;28;20045;-61
2023/07/05 01:38:34;;;;;;;11.65;5.25;;;;;;;;;;5053390;28;20090;-61
2023/07/05 01:41:02;;;;;;;10.52;4.65;;;;;;;;;;5046770;28;20060;-61
2023/07/05 01:43:31;;;;;;;12.15;4.80;;;;;;;;;;5053252;28;20536;-61
2023/07/05 01:46:09;;;;;;;9.55;4.80;;;;;;;;;;5053204;28;20481;-62
2023/07/05 01:48:37;;;;;;;9.18;4.70;;;;;;;;;;5053031;28;20068;-61
2023/07/05 01:51:28;;;;;;;11.65;4.72;;;;;;;;;;5053027;28;20128;-62
2023/07/05 01:54:10;;;;;;;8.60;4.85;;;;;;;;;;5053357;28;20049;-61
2023/07/05 01:56:58;;;;;;;11.40;4.63;;;;;;;;;;5053080;28;20049;-61
2023/07/05 01:59:27;;;;;;;8.63;5.53;;;;;;;;;;5052875;28;20048;-61
2023/07/05 02:01:55;;;;;;;9.82;5.15;;;;;;;;;;5052918;28;20048;-61
2023/07/05 02:04:23;;;;;;;11.15;5.63;;;;;;;;;;5053148;28;20084;-62
2023/07/05 02:06:51;;;;;;;9.50;5.97;;;;;;;;;;5053198;28;20052;-62
2023/07/05 02:09:17;;;;;;;;;;;;;;;;;;5053089;28;20409;-61
2023/07/05 02:11:43;;;;;;;8.50;5.18;;;;;;;;;;5053113;28;19921;-61
2023/07/05 02:14:11;;;;;;;11.13;5.80;;;;;;;;;;5052972;28;20484;-61
2023/07/05 02:16:41;;;;;;;11.55;5.82;;;;;;;;;;5052651;28;20045;-62
2023/07/05 02:19:07;;;;;;;10.80;5.88;;;;;;;;;;5052909;28;20408;-61
2023/07/05 02:21:34;;;;;;;10.93;5.50;;;;;;;;;;5052398;28;20049;-61
2023/07/05 02:24:01;;;;;;;10.15;6.15;;;;;;;;;;5052785;28;20060;-61
2023/07/05 02:26:27;;;;;;;8.55;5.70;;;;;;;;;;5052779;28;20401;-61
2023/07/05 02:28:54;;;;;;;9.90;6.20;;;;;;;;;;5052563;28;20493;-61
2023/07/05 02:31:20;;;;;;;11.48;5.85;;;;;;;;;;5052397;28;20065;-61
2023/07/05 02:33:47;;;;;;;8.63;5.63;;;;;;;;;;5052282;28;20519;-61
2023/07/05 02:36:14;;;;;;;6.53;5.47;;;;;;;;;;5052516;28;20550;-61
2023/07/05 02:38:41;;;;;;;7.03;5.68;;;;;;;;;;5052180;28;20060;-61
2023/07/05 02:41:07;;;;;;;6.95;6.00;;;;;;;;;;5051819;28;20049;-61
2023/07/05 02:43:34;;;;;;;9.32;6.03;;;;;;;;;;5052370;28;20045;-61
2023/07/05 02:46:01;;;;;;;11.25;5.75;;;;;;;;;;5052080;28;20048;-61
2023/07/05 02:48:27;;;;;;;9.02;5.45;;;;;;;;;;5051828;28;20057;-61
2023/07/05 02:50:54;;;;;;;12.02;5.95;;;;;;;;;;5052221;28;20048;-60
2023/07/05 02:53:20;;;;;;;5.80;4.90;;;;;;;;;;5051962;28;20049;-61
2023/07/05 02:55:47;;;;;;;7.63;5.05;;;;;;;;;;5051909;28;20045;-61
2023/07/05 02:58:13;;;;;;;6.63;5.38;;;;;;;;;;5051881;28;20055;-61
2023/07/05 03:00:40;;;;;;;7.40;4.97;;;;;;;;;;5051974;28;20230;-61
2023/07/05 03:03:06;;;;;;;6.97;5.60;;;;;;;;;;5051730;28;20079;-61
2023/07/05 03:05:32;;;;;;;7.63;5.30;;;;;;;;;;5051725;28;20048;-61
2023/07/05 03:07:59;;;;;;;8.35;6.00;;;;;;;;;;5023946;28;20061;-61
2023/07/05 03:10:25;;;;;;;9.82;6.15;;;;;;;;;;5052012;28;20060;-61
2023/07/05 03:12:52;;;;;;;8.05;6.00;;;;;;;;;;5051923;28;20053;-61
2023/07/05 03:15:18;;;;;;;10.68;6.55;;;;;;;;;;5051726;28;20045;-61
2023/07/05 03:17:45;;;;;;;9.30;6.35;;;;;;;;;;5051981;28;20052;-61
2023/07/05 03:20:11;;;;;;;9.55;6.13;;;;;;;;;;5051846;28;20067;-61
2023/07/05 03:22:38;;;;;;;6.80;6.18;;;;;;;;;;5051375;28;20049;-61
2023/07/05 03:25:04;;;;;;;7.72;6.30;;;;;;;;;;5051681;28;20048;-61
2023/07/05 03:27:31;;;;;;;10.73;6.22;;;;;;;;;;5051640;28;20122;-61
2023/07/05 03:29:57;;;;;;;7.70;5.97;;;;;;;;;;5051384;28;20413;-61
2023/07/05 03:32:24;;;;;;;7.00;5.72;;;;;;;;;;5051438;28;20064;-61
2023/07/05 03:34:51;;;;;;;9.98;6.65;;;;;;;;;;5051891;28;20049;-61
2023/07/05 03:37:17;;;;;;;8.80;5.82;;;;;;;;;;5051391;28;20493;-61
2023/07/05 03:39:44;;;;;;;5.93;5.35;;;;;;;;;;5051316;28;20103;-61
2023/07/05 03:42:10;;;;;;;10.82;6.53;;;;;;;;;;5051340;28;20496;-61
2023/07/05 03:44:37;;;;;;;7.60;5.90;;;;;;;;;;5051359;28;20505;-61
2023/07/05 03:47:04;;;;;;;8.13;6.10;;;;;;;;;;5051015;28;20546;-61
2023/07/05 03:49:30;;;;;;;7.45;6.30;;;;;;;;;;5051493;28;20045;-61
2023/07/05 03:51:57;;;;;;;8.75;6.28;;;;;;;;;;5052466;28;20052;-61
2023/07/05 03:54:23;;;;;;;9.63;7.18;;;;;;;;;;5055636;28;20045;-61
2023/07/05 03:56:50;;;;;;;7.75;6.97;;;;;;;;;;5055756;28;20045;-60
2023/07/05 03:59:16;;;;;;;8.55;7.65;;;;;;;;;;5055297;28;20124;-61
2023/07/05 04:01:42;;;;;;;9.35;7.22;;;;;;;;;;5055410;28;20412;-61
2023/07/05 04:04:09;;;;;;;8.70;7.35;;;;;;;;;;5055430;28;20127;-61
2023/07/05 04:06:35;;;;;;;10.55;7.05;;;;;;;;;;5055419;28;20072;-61
2023/07/05 04:09:02;;;;;;;8.68;7.80;;;;;;;;;;5055271;28;20107;-61
2023/07/05 04:11:29;;;;;;;9.98;7.20;;;;;;;;;;5055201;28;20045;-61
2023/07/05 04:13:56;;;;;;;8.75;7.35;;;;;;;;;;5055092;28;20084;-61
2023/07/05 04:16:26;;;;;;;9.00;7.60;;;;;;;;;;5054893;28;20095;-61
2023/07/05 04:18:54;;;;;;;8.88;7.97;;;;;;;;;;5055148;28;20055;-61
2023/07/05 04:21:21;;;;;;;8.75;7.88;;;;;;;;;;5055126;28;20055;-61
2023/07/05 04:23:48;;;;;;;11.55;8.23;;;;;;;;;;5055006;28;20045;-61
2023/07/05 04:26:16;;;;;;;9.10;7.75;;;;;;;;;;5055067;28;20057;-61
2023/07/05 04:28:42;;;;;;;;;;;;;;;;;;5055180;28;20090;-61
2023/07/05 04:31:11;;;;;;;7.82;6.28;;;;;;;;;;5054623;28;19924;-61
2023/07/05 04:33:37;;;;;;;10.23;6.55;;;;;;;;;;5054678;28;20067;-61
2023/07/05 04:36:04;;;;;;;9.88;7.10;;;;;;;;;;5053497;28;20053;-61
2023/07/05 04:38:48;;;;;;;9.07;6.32;;;;;;;;;;5054901;28;20052;-61
2023/07/05 04:41:15;;;;;;;8.55;7.65;;;;;;;;;;5054702;28;20053;-61
2023/07/05 04:43:41;;;;;;;8.18;6.75;;;;;;;;;;5054568;28;20057;-61
2023/07/05 04:46:08;;;;;;;9.23;7.30;;;;;;;;;;5054775;28;20412;-61
2023/07/05 04:48:34;;;;;;;7.82;7.00;;;;;;;;;;5053120;28;20072;-61
2023/07/05 04:51:01;;;;;;;11.27;8.02;;;;;;;;;;5053412;28;20579;-61
2023/07/05 04:53:28;;;;;;;10.93;8.48;;;;;;;;;;5053090;28;20103;-61
2023/07/05 04:55:56;;;;;;;11.23;8.13;;;;;;;;;;5052957;28;20119;-61
2023/07/05 04:58:23;;;;;;;14.30;8.65;;;;;;;;;;5053163;28;20060;-61
2023/07/05 05:00:50;;;;;;;8.82;7.88;;;;;;;;;;5052985;28;20056;-61
2023/07/05 05:03:18;;;;;;;11.53;8.17;;;;;;;;;;5052640;28;20085;-61
2023/07/05 05:05:45;;;;;;;9.68;8.50;;;;;;;;;;5053144;28;20051;-61
2023/07/05 05:08:12;;;;;;;10.40;7.95;;;;;;;;;;5052755;28;20447;-61
2023/07/05 05:10:39;;;;;;;9.43;7.27;;;;;;;;;;5052815;28;20485;-61
2023/07/05 05:13:06;;;;;;;7.68;6.55;;;;;;;;;;5053138;28;20044;-61
2023/07/05 05:15:39;;;;;;;8.15;6.07;;;;;;;;;;5052763;28;20060;-62
2023/07/05 05:18:06;;;;;;;6.95;5.90;;;;;;;;;;5052923;28;20059;-61
2023/07/05 05:20:33;;;;;;;6.97;5.72;;;;;;;;;;5052711;28;20518;-61
2023/07/05 05:22:59;;;;;;;9.90;5.78;;;;;;;;;;5052527;28;20048;-61
2023/07/05 05:25:27;;;;;;;6.50;5.57;;;;;;;;;;5052879;28;20512;-61
2023/07/05 05:27:53;;;;;;;7.32;6.03;;;;;;;;;;5052520;28;20505;-61
2023/07/05 05:30:20;;;;;;;5.85;5.28;;;;;;;;;;5052493;28;20102;-61
2023/07/05 05:32:46;;;;;;;6.65;5.88;;;;;;;;;;5051430;28;20060;-61
2023/07/05 05:35:13;;;;;;;7.68;5.82;;;;;;;;;;5052497;28;20045;-61
2023/07/05 05:37:40;;;;;;;8.30;6.40;;;;;;;;;;5052762;28;20048;-61
2023/07/05 05:40:07;;;;;;;7.38;6.60;;;;;;;;;;5052650;28;20056;-61
2023/07/05 05:42:34;;;;;;;8.90;7.05;;;;;;;;;;5052264;28;20049;-61
2023/07/05 05:45:00;;;;;;;7.40;6.70;;;;;;;;;;5052376;28;20049;-61
2023/07/05 05:47:27;;;;;;;8.30;6.97;;;;;;;;;;5010539;28;1208706;-61
2023/07/05 05:49:53;;;;;;;7.32;6.45;;;;;;;;;;5053156;28;20045;-61
2023/07/05 05:52:20;;;;;;;7.70;6.93;;;;;;;;;;5053199;28;20056;-61
2023/07/05 05:54:46;;;;;;;8.10;7.35;;;;;;;;;;5053173;28;20056;-61
2023/07/05 05:57:12;;;;;;;9.80;7.57;;;;;;;;;;5042561;28;20049;-61
2023/07/05 05:59:39;;;;;;;9.63;7.55;;;;;;;;;;5043214;28;20124;-61
2023/07/05 06:02:05;;;;;;;9.45;8.40;;;;;;;;;;5033052;28;20049;-61
2023/07/05 06:04:32;;;;;;;11.95;8.20;;;;;;;;;;5033257;28;20088;-61
2023/07/05 06:06:58;;;;;;;13.63;8.88;;;;;;;;;;5031666;28;20049;-61
2023/07/05 06:09:25;;;;;;;9.95;8.38;;;;;;;;;;5038894;28;20049;-61
2023/07/05 06:11:51;;;;;;;10.77;8.50;;;;;;;;;;5043289;28;20107;-61
2023/07/05 06:14:18;;;;;;;9.10;7.63;;;;;;;;;;5052212;28;20048;-61
2023/07/05 06:16:44;;;;;;;11.55;7.55;;;;;;;;;;5053059;28;20141;-61
2023/07/05 06:19:11;;;;;;;10.57;7.53;;;;;;;;;;5052535;28;20056;-61
2023/07/05 06:21:37;;;;;;;8.35;7.50;;;;;;;;;;5053228;28;20053;-61
2023/07/05 06:24:04;;;;;;;9.70;7.90;;;;;;;;;;5052559;28;20099;-61
2023/07/05 06:26:30;;;;;;;8.13;7.20;;;;;;;;;;5039920;28;20064;-61
2023/07/05 06:28:57;;;;;;;9.07;7.05;;;;;;;;;;5042507;28;20064;-61
2023/07/05 06:31:23;;;;;;;7.80;6.47;;;;;;;;;;5032665;28;20049;-62
2023/07/05 06:33:50;;;;;;;7.57;6.28;;;;;;;;;;5032167;28;20457;-61
2023/07/05 06:36:16;;;;;;;7.78;5.50;;;;;;;;;;5032352;28;20045;-60
2023/07/05 06:38:43;;;;;;;6.93;6.30;;;;;;;;;;5032537;28;20059;-61
2023/07/05 06:41:09;;;;;;;8.88;6.55;;;;;;;;;;5032391;28;20133;-61
2023/07/05 06:43:35;;;;;;;6.97;6.10;;;;;;;;;;5032418;28;20053;-62
2023/07/05 06:46:02;;;;;;;6.28;5.30;;;;;;;;;;5043081;28;20409;-61
2023/07/05 06:48:28;;;;;;;6.22;5.07;;;;;;;;;;5052032;28;20413;-60
2023/07/05 06:50:56;;;;;;;6.28;5.13;;;;;;;;;;5052368;28;20083;-61
2023/07/05 06:53:23;;;;;;;6.93;5.40;;;;;;;;;;5052197;28;20587;-61
2023/07/05 06:56:09;;;;;;;5.13;4.13;;;;;;;;;;5051008;28;20099;-61
2023/07/05 06:58:36;;;;;;;5.55;4.43;;;;;;;;;;5050706;28;20056;-61
2023/07/05 07:01:03;;;;;;;4.65;3.85;;;;;;;;;;5050561;28;20519;-61
2023/07/05 07:03:30;;;;;;;6.00;3.90;;;;;;;;;;5050782;28;20064;-61
2023/07/05 07:05:57;;;;;;;3.77;3.40;;;;;;;;;;5050510;28;20520;-61
2023/07/05 07:08:26;;;;;;;4.25;3.40;;;;;;;;;;5050890;28;20277;-61
2023/07/05 07:10:53;;;;;;;3.53;3.22;;;;;;;;;;5051546;28;20045;-61
2023/07/05 07:13:20;;;;;;;4.78;3.08;;;;;;;;;;5051725;28;20060;-61
2023/07/05 07:15:46;;;;;;;3.47;3.17;;;;;;;;;;5051685;28;20124;-61
2023/07/05 07:18:13;;;;;;;5.05;2.72;;;;;;;;;;5051981;28;20041;-61
2023/07/05 07:20:39;;;;;;;4.97;2.95;;;;;;;;;;5051692;28;20496;-61
2023/07/05 07:23:06;;;;;;;5.05;2.60;;;;;;;;;;5051484;28;20045;-61
2023/07/05 07:25:32;;;;;;;4.07;2.75;;;;;;;;;;5051476;28;20405;-61
2023/07/05 07:27:59;;;;;;;4.13;2.33;;;;;;;;;;5051597;28;20041;-61
2023/07/05 07:30:25;;;;;;;6.25;2.40;;;;;;;;;;5051603;28;20542;-61
2023/07/05 07:32:52;;;;;;;3.80;2.30;;;;;;;;;;5051618;28;20049;-61
2023/07/05 07:35:18;;;;;;;5.43;2.72;;;;;;;;;;5051855;28;20098;-61
2023/07/05 07:37:45;;;;;;;4.43;2.38;;;;;;;;;;5051589;28;20106;-61
2023/07/05 07:40:12;;;;;;;5.63;2.00;;;;;;;;;;5051399;28;20053;-61
2023/07/05 07:42:38;;;;;;;2.53;1.98;;;;;;;;;;5051380;28;20053;-61
2023/07/05 07:45:05;;;;;;;3.55;2.35;;;;;;;;;;5051626;28;20048;-61
2023/07/05 07:47:31;;;;;;;3.50;2.10;;;;;;;;;;5051319;28;20056;-61
2023/07/05 07:49:58;;;;;;;3.42;2.40;;;;;;;;;;5051375;28;20053;-61
2023/07/05 07:52:24;;;;;;;4.03;2.55;;;;;;;;;;5051398;28;20052;-61
2023/07/05 07:54:53;;;;;;;4.70;2.38;;;;;;;;;;5051329;28;20114;-61
2023/07/05 07:57:19;;;;;;;2.72;2.10;;;;;;;;;;5051514;28;20048;-60
2023/07/05 07:59:46;;;;;;;3.45;2.00;;;;;;;;;;5051308;28;20107;-61
2023/07/05 08:02:13;;;;;;;2.67;2.22;;;;;;;;;;5051220;28;20060;-61
2023/07/05 08:04:44;;;;;;;3.13;1.92;;;;;;;;;;5051251;28;20048;-61
2023/07/05 08:07:10;;;;;;;6.28;1.77;;;;;;;;;;5051195;28;20493;-61
2023/07/05 08:09:37;;;;;;;3.05;1.98;;;;;;;;;;5051031;28;20061;-61
2023/07/05 08:12:04;;;;;;;3.67;1.70;;;;;;;;;;5051151;28;20579;-61
2023/07/05 08:14:30;;;;;;;2.87;1.30;;;;;;;;;;5051426;28;20511;-61
2023/07/05 08:16:57;;;;;;;2.38;1.55;;;;;;;;;;5051441;28;20286;-61
2023/07/05 08:19:23;;;;;;;1.70;1.03;;;;;;;;;;5051356;28;20440;-61
2023/07/05 08:21:50;;;;;;;2.77;1.20;;;;;;;;;;5051130;28;20049;-61
2023/07/05 08:24:17;;;;;;;1.67;1.50;;;;;;;;;;5050944;28;20049;-61
2023/07/05 08:26:46;;;;;;;4.47;1.92;;;;;;;;;;5051142;28;20274;-61
2023/07/05 08:29:13;;;;;;;2.63;1.70;;;;;;;;;;5051172;28;20452;-61
2023/07/05 08:31:41;;;;;;;3.23;1.50;;;;;;;;;;5050959;28;20053;-61
2023/07/05 08:34:12;;;;;;;2.20;1.38;;;;;;;;;;5051281;28;20057;-61
2023/07/05 08:36:39;;;;;;;1.35;1.25;;;;;;;;;;5051101;28;20045;-61
2023/07/05 08:39:06;;;;;;;2.67;1.33;;;;;;;;;;5053983;28;20049;-61
2023/07/05 08:41:43;;;;;;;3.38;2.05;;;;;;;;;;5054778;28;20136;-61
2023/07/05 08:44:18;;;;;;;2.47;2.10;;;;;;;;;;5054494;28;20564;-61
2023/07/05 08:46:47;;;;;;;1.77;1.45;;;;;;;;;;5054350;28;20056;-61
2023/07/05 08:49:21;;;;;;;2.35;1.40;;;;;;;;;;5054349;28;20052;-61
2023/07/05 08:51:48;;;;;;;3.13;1.40;;;;;;;;;;5054625;28;20132;-61
2023/07/05 08:54:16;;;;;;;2.05;1.40;;;;;;;;;;5054275;28;20071;-61
2023/07/05 08:56:45;;;;;;;1.75;1.30;;;;;;;;;;5054280;28;20564;-61
2023/07/05 08:59:24;;;;;;;1.35;1.15;;;;;;;;;;5054581;28;20052;-61
2023/07/05 09:01:51;;;;;;;2.72;1.40;;;;;;;;;;5054500;28;20508;-61
2023/07/05 09:04:24;;;;;;;3.00;1.10;;;;;;;;;;5054051;28;20072;-61
2023/07/05 09:06:52;;;;;;;1.00;0.80;;;;;;;;;;5043879;28;20050;-61
2023/07/05 09:09:37;;;;;;;1.95;0.82;;;;;;;;;;5050967;28;20048;-61
2023/07/05 09:12:03;;;;;;;5.07;1.30;;;;;;;;;;5053919;28;20095;-61
2023/07/05 09:14:30;;;;;;;1.73;1.10;;;;;;;;;;5054252;28;20052;-61
2023/07/05 09:17:00;;;;;;;3.40;1.13;;;;;;;;;;5054254;28;20359;-61
2023/07/05 09:19:30;;;;;;;2.55;1.30;;;;;;;;;;5054038;28;20147;-61
2023/07/05 09:22:03;;;;;;;3.45;1.35;;;;;;;;;;5053949;28;20049;-61
2023/07/05 09:24:35;;;;;;;2.85;1.13;;;;;;;;;;5053924;28;20103;-61
2023/07/05 09:27:08;;;;;;;2.05;0.80;;;;;;;;;;5053955;28;20056;-61
2023/07/05 09:29:34;;;;;;;1.98;0.80;;;;;;;;;;5053627;28;20049;-61
2023/07/05 09:32:04;;;;;;;2.07;1.03;;;;;;;;;;5053830;28;20053;-61
2023/07/05 09:34:36;;;;;;;1.73;0.95;;;;;;;;;;5053912;28;20282;-61
2023/07/05 09:37:11;;;;;;;2.10;1.10;;;;;;;;;;5053598;28;20049;-61
2023/07/05 09:39:46;;;;;;;0.98;0.70;;;;;;;;;;5053860;28;20412;-61
2023/07/05 09:42:17;;;;;;;2.28;1.10;;;;;;;;;;5053706;28;20345;-61
2023/07/05 09:44:44;;;;;;;1.25;0.75;;;;;;;;;;5053437;28;20492;-61
2023/07/05 09:47:11;;;;;;;1.20;0.73;;;;;;;;;;5053369;28;20061;-61
2023/07/05 09:49:37;;;;;;;1.35;0.75;;;;;;;;;;5052346;28;20480;-60
2023/07/05 09:52:08;;;;;;;1.95;0.70;;;;;;;;;;5053482;28;20056;-61
2023/07/05 09:54:35;;;;;;;1.58;0.90;;;;;;;;;;5053172;28;20045;-61
2023/07/05 09:57:04;;;;;;;2.42;0.93;;;;;;;;;;5053225;28;20053;-61
2023/07/05 09:59:34;;;;;;;1.23;0.90;;;;;;;;;;5053233;28;20106;-61
2023/07/05 10:02:16;;;;;;;2.13;0.60;;;;;;;;;;5053086;28;20056;-61
2023/07/05 10:04:44;;;;;;;2.67;0.80;;;;;;;;;;5053248;28;20060;-60
2023/07/05 10:07:18;;;;;;;3.70;0.82;;;;;;;;;;5053286;28;20049;-61
2023/07/05 10:09:59;;;;;;;1.90;0.82;;;;;;;;;;5053148;28;20168;-61
2023/07/05 10:12:27;;;;;;;1.48;0.75;;;;;;;;;;5053070;28;20049;-61
2023/07/05 10:14:54;;;;;;;2.35;0.82;;;;;;;;;;5052889;28;20053;-60
2023/07/05 10:17:30;;;;;;;1.40;0.68;;;;;;;;;;5052954;28;20049;-61
2023/07/05 10:19:56;;;;;;;2.00;0.90;;;;;;;;;;5051571;28;20107;-60
2023/07/05 10:22:28;;;;;;;2.30;0.60;;;;;;;;;;5052831;28;20103;-61
2023/07/05 10:25:01;;;;;;;2.15;0.40;;;;;;;;;;5052541;28;20048;-61
2023/07/05 10:27:32;;;;;;;1.63;0.50;;;;;;;;;;5052608;28;20451;-60
2023/07/05 10:30:00;;;;;;;1.65;0.65;;;;;;;;;;5052751;28;20048;-60
2023/07/05 10:32:28;;;;;;;1.63;0.52;;;;;;;;;;5052630;28;20057;-60
2023/07/05 10:34:55;;;;;;;1.85;0.40;;;;;;;;;;5052698;28;20084;-60
2023/07/05 10:37:29;;;;;;;1.77;0.77;;;;;;;;;;5052409;28;20064;-60
2023/07/05 10:39:56;;;;;;;2.03;0.70;;;;;;;;;;5052263;28;20412;-60
2023/07/05 10:42:24;;;;;;;2.33;0.55;;;;;;;;;;5052540;28;20044;-60
2023/07/05 10:44:51;;;;;;;1.83;0.50;;;;;;;;;;5052166;28;20087;-60
2023/07/05 10:47:18;;;;;;;2.30;0.55;;;;;;;;;;5052209;28;20459;-60
2023/07/05 10:49:47;;;;;;;0.95;0.50;;;;;;;;;;5052134;28;20566;-60
2023/07/05 10:52:15;;;;;;;2.35;0.40;;;;;;;;;;5052069;28;20057;-60
2023/07/05 10:54:42;;;;;;;2.35;0.70;;;;;;;;;;5052095;28;20094;-60
2023/07/05 10:57:17;;;;;;;2.05;0.50;;;;;;;;;;5052318;28;20400;-60
2023/07/05 10:59:48;;;;;;;2.20;0.70;;;;;;;;;;5052282;28;20068;-60
2023/07/05 11:02:20;;;;;;;1.38;0.50;;;;;;;;;;5051631;28;20493;-60
2023/07/05 11:04:49;;;;;;;2.22;0.70;;;;;;;;;;5052196;28;20435;-60
2023/07/05 11:07:18;;;;;;;2.55;0.50;;;;;;;;;;5051773;28;20049;-60
2023/07/05 11:09:44;;;;;;;1.98;0.50;;;;;;;;;;5052365;28;20056;-60
2023/07/05 11:12:16;;;;;;;1.80;0.40;;;;;;;;;;5052001;28;20128;-60
2023/07/05 11:14:43;;;;;;;2.60;0.70;;;;;;;;;;5052314;28;20053;-60
2023/07/05 11:17:19;;;;;;;2.17;0.80;;;;;;;;;;5052032;28;20057;-61
2023/07/05 11:19:46;;;;;;;2.08;0.70;;;;;;;;;;5051668;28;20524;-60
2023/07/05 11:22:31;;;;;;;1.52;0.75;;;;;;;;;;5051808;28;20508;-60
2023/07/05 11:24:57;;;;;;;1.83;0.88;;;;;;;;;;5051638;28;20377;-60
2023/07/05 11:27:24;;;;;;;3.88;0.80;;;;;;;;;;5051610;28;20061;-60
2023/07/05 11:29:51;;;;;;;;;;;;;;;;;;5051927;28;20040;-60
2023/07/05 11:32:19;;;;;;;1.80;0.70;;;;;;;;;;5051546;28;19924;-60
2023/07/05 11:34:50;;;;;;;2.05;0.80;;;;;;;;;;5051615;28;20049;-61
2023/07/05 11:37:16;;;;;;;1.23;0.80;;;;;;;;;;5051781;28;20067;-60
2023/07/05 11:39:43;;;;;;;;;;;;;;;;;;5052200;28;20062;-60
2023/07/05 11:42:12;;;;;;;1.58;0.80;;;;;;;;;;5051703;28;19920;-60
2023/07/05 11:44:40;;;;;;;2.58;0.80;;;;;;;;;;5051385;28;20091;-60
2023/07/05 11:47:09;;;;;;;1.63;0.70;;;;;;;;;;5051470;28;20056;-60
2023/07/05 11:49:37;;;;;;;2.15;0.77;;;;;;;;;;5042823;28;20045;-60
2023/07/05 11:52:11;;;;;;;1.75;0.70;;;;;;;;;;5046741;28;20421;-60
2023/07/05 11:54:58;;;;;;;1.40;0.65;;;;;;;;;;5051624;28;20049;-60
2023/07/05 11:57:26;;;;;;;1.05;0.60;;;;;;;;;;5044026;28;20053;-59
2023/07/05 12:00:18;;;;;;;1.38;0.70;;;;;;;;;;5051348;28;20064;-60
2023/07/05 12:02:44;;;;;;;1.65;0.70;;;;;;;;;;5051200;28;20489;-60
2023/07/05 12:05:13;;;;;;;1.10;0.52;;;;;;;;;;5051202;28;20378;-60
2023/07/05 12:07:40;;;;;;;1.35;0.70;;;;;;;;;;5051384;28;20049;-59
2023/07/05 12:10:07;;;;;;;1.95;0.50;;;;;;;;;;5051234;28;20053;-60
2023/07/05 12:12:39;;;;;;;0.75;0.75;;;;;;;;;;5051983;28;20048;-59
2023/07/05 12:15:08;;;;;;;2.25;0.60;;;;;;;;;;5053887;28;20053;-60
2023/07/05 12:17:35;;;;;;;1.40;0.82;;;;;;;;;;5054913;28;20500;-59
2023/07/05 12:20:07;;;;;;;1.20;0.70;;;;;;;;;;5055253;28;20413;-59
2023/07/05 12:22:33;;;;;;;1.77;0.50;;;;;;;;;;5055160;28;20049;-59
2023/07/05 12:25:00;;;;;;;1.83;0.68;;;;;;;;;;5055195;28;20500;-59
2023/07/05 12:27:26;;;;;;;;;;;;;;;;;;5055312;28;20562;-59
2023/07/05 12:29:53;;;;;;;1.45;0.70;;;;;;;;;;5054731;28;19920;-59
2023/07/05 12:32:21;;;;;;;1.65;0.63;;;;;;;;;;5055162;28;20049;-59
2023/07/05 12:35:03;;;;;;;2.72;0.90;;;;;;;;;;5055023;28;20061;-59
2023/07/05 12:37:31;;;;;;;1.65;0.77;;;;;;;;;;5054905;28;20106;-59
2023/07/05 12:40:17;;;;;;;1.15;0.65;;;;;;;;;;5054704;28;20060;-59
2023/07/05 12:42:48;;;;;;;1.25;0.90;;;;;;;;;;5054499;28;20056;-59
2023/07/05 12:45:16;;;;;;;2.83;1.30;;;;;;;;;;5054437;28;20052;-59
2023/07/05 12:47:43;;;;;;;3.40;0.85;;;;;;;;;;5054589;28;20053;-59
2023/07/05 12:50:09;;;;;;;2.63;0.70;;;;;;;;;;5054703;28;20118;-59
2023/07/05 12:52:36;;;;;;;1.65;0.80;;;;;;;;;;5054413;28;20049;-59
2023/07/05 12:55:03;;;;;;;1.35;0.82;;;;;;;;;;5054276;28;20056;-59
2023/07/05 12:57:32;;;;;;;1.75;0.60;;;;;;;;;;5054477;28;20049;-59
2023/07/05 12:59:58;;;;;;;1.35;0.77;;;;;;;;;;5054317;28;20056;-59
2023/07/05 13:02:32;;;;;;;1.65;0.70;;;;;;;;;;5054222;28;20500;-58
2023/07/05 13:04:59;;;;;;;2.95;0.63;;;;;;;;;;5054221;28;20045;-58
2023/07/05 13:07:26;;;;;;;0.80;0.63;;;;;;;;;;5053969;28;20131;-58
2023/07/05 13:09:59;;;;;;;1.45;0.75;;;;;;;;;;5054105;28;20056;-58
2023/07/05 13:12:42;;;;;;;1.85;0.63;;;;;;;;;;5054249;28;20049;-58
2023/07/05 13:15:08;;;;;;;1.45;0.77;;;;;;;;;;5054041;28;20474;-58
2023/07/05 13:17:35;;;;;;;1.02;0.82;;;;;;;;;;5054236;28;20061;-58
2023/07/05 13:20:05;;;;;;;1.55;0.80;;;;;;;;;;5053911;28;20053;-59
2023/07/05 13:22:36;;;;;;;1.48;0.60;;;;;;;;;;5052856;28;20511;-58
2023/07/05 13:25:05;;;;;;;2.33;0.73;;;;;;;;;;5053681;28;20049;-58
2023/07/05 13:27:34;;;;;;;1.27;0.70;;;;;;;;;;5054067;28;20106;-58
2023/07/05 13:30:15;;;;;;;1.67;0.60;;;;;;;;;;5053956;28;20051;-58
2023/07/05 13:32:45;;;;;;;1.00;0.60;;;;;;;;;;5053742;28;20480;-58
2023/07/05 13:35:12;;;;;;;1.05;0.70;;;;;;;;;;5053965;28;20102;-58
2023/07/05 13:37:39;;;;;;;1.40;0.52;;;;;;;;;;5053937;28;20052;-57
2023/07/05 13:40:09;;;;;;;1.35;0.63;;;;;;;;;;5053777;28;20045;-58
2023/07/05 13:42:37;;;;;;;2.53;0.57;;;;;;;;;;5053546;28;20064;-57
2023/07/05 13:45:03;;;;;;;1.65;0.60;;;;;;;;;;5053340;28;20044;-58
2023/07/05 13:47:30;;;;;;;1.02;0.77;;;;;;;;;;5053483;28;20103;-58
2023/07/05 13:49:56;;;;;;;2.25;0.60;;;;;;;;;;5053484;28;20073;-58
2023/07/05 13:52:27;;;;;;;1.20;0.40;;;;;;;;;;5053629;28;20055;-58
2023/07/05 13:54:54;;;;;;;3.35;0.77;;;;;;;;;;5053610;28;20053;-58
2023/07/05 13:57:20;;;;;;;0.70;0.70;;;;;;;;;;5053091;28;20049;-58
2023/07/05 13:59:47;;;;;;;1.00;0.60;;;;;;;;;;5053224;28;20048;-57
2023/07/05 14:02:30;;;;;;;3.35;0.60;;;;;;;;;;5053232;28;20056;-58
2023/07/05 14:04:59;;;;;;;1.50;0.60;;;;;;;;;;5052945;28;20056;-58
2023/07/05 14:07:25;;;;;;;1.48;0.50;;;;;;;;;;5052846;28;20116;-58
2023/07/05 14:09:52;;;;;;;1.35;0.70;;;;;;;;;;5052980;28;20051;-58
2023/07/05 14:12:19;;;;;;;1.25;0.60;;;;;;;;;;5053191;28;20049;-58
2023/07/05 14:14:46;;;;;;;1.27;0.50;;;;;;;;;;5053139;28;20448;-58
2023/07/05 14:17:16;;;;;;;1.40;0.57;;;;;;;;;;5052845;28;20056;-58
2023/07/05 14:19:43;;;;;;;1.08;0.55;;;;;;;;;;5052702;28;20475;-59
2023/07/05 14:22:16;;;;;;;2.22;0.50;;;;;;;;;;5053046;28;20314;-58
2023/07/05 14:24:46;;;;;;;1.98;0.52;;;;;;;;;;5052841;28;20051;-58
2023/07/05 14:27:17;;;;;;;0.68;0.30;;;;;;;;;;5052662;28;20064;-58
2023/07/05 14:29:45;;;;;;;0.68;0.30;;;;;;;;;;5052871;28;20041;-58
2023/07/05 14:32:11;;;;;;;1.60;0.35;;;;;;;;;;5052545;28;20508;-58
2023/07/05 14:34:38;;;;;;;0.70;0.30;;;;;;;;;;5052476;28;20053;-58
2023/07/05 14:37:05;;;;;;;2.15;0.60;;;;;;;;;;5051839;28;20417;-58
2023/07/05 14:39:31;;;;;;;0.60;0.47;;;;;;;;;;5052983;28;20057;-58
2023/07/05 14:41:58;;;;;;;1.40;0.60;;;;;;;;;;5052576;28;20040;-58
2023/07/05 14:44:24;;;;;;;1.85;0.38;;;;;;;;;;5052410;28;20052;-58
2023/07/05 14:46:52;;;;;;;0.55;0.40;;;;;;;;;;5052335;28;20037;-59
2023/07/05 14:49:18;;;;;;;1.40;0.40;;;;;;;;;;5052178;28;20041;-58
2023/07/05 14:51:45;;;;;;;0.55;0.40;;;;;;;;;;5052518;28;20045;-58